KSFZ/SFZ METAR and TAF weather

Enter ICAO airport designator
Station Type Date Time Source
KSFZ METAR 2020/07/09 07:56 UTC NOAA

KSFZ 090756Z AUTO VRB03KT 10SM OVC010 22/22 A2999 RMK AO2 SLP099 T02220217


Station Type Date Time Source
KSFZ Decoded METAR 2020/07/09 07:56 UTC NOAA

Pawtucket, North Central State Airport, RI, United States (KSFZ) 41-55N 071-30W
Jul 09, 2020 - 03:56 AM EDT / 2020.07.09 0756 UTC
Wind: Variable at 3 MPH (3 KT):0
Visibility: 10 mile(s):0
Sky conditions: overcast
Temperature: 72.0 F (22.2 C)
Dew Point: 71.1 F (21.7 C)
Relative Humidity: 96%
Pressure (altimeter): 29.99 in. Hg (1015 hPa)
ob: KSFZ 090756Z AUTO VRB03KT 10SM OVC010 22/22 A2999 RMK AO2 SLP099 T02220217
cycle: 8

Station Type Date Time Source
KSFZ TAF UTC NOAA

Error!

Example: see airport list